createdAt,value
2023-03-25T00:04:20.885Z,26.6
2023-03-25T00:09:57.265Z,26.6
2023-03-25T00:15:17.891Z,26.6
2023-03-25T00:21:09.937Z,26.6
2023-03-25T00:26:30.741Z,26.6
2023-03-25T00:31:51.638Z,26.6
2023-03-25T00:37:44.206Z,26.6
2023-03-25T00:43:35.595Z,26.6
2023-03-25T00:49:13.074Z,26.6
2023-03-25T00:54:59.296Z,26.6
2023-03-25T01:00:50.741Z,26.7
2023-03-25T01:06:44.323Z,26.6
2023-03-25T01:12:20.778Z,26.7
2023-03-25T01:17:57.420Z,26.7
2023-03-25T01:23:34.057Z,26.7
2023-03-25T01:29:26.345Z,26.7
2023-03-25T01:35:02.441Z,26.7
2023-03-25T01:40:38.945Z,26.7
2023-03-25T01:46:10.676Z,26.7
2023-03-25T01:51:47.026Z,26.8
2023-03-25T01:57:22.840Z,26.7
2023-03-25T02:03:15.080Z,26.8
2023-03-25T02:08:51.325Z,26.8
2023-03-25T02:14:27.222Z,26.7
2023-03-25T02:20:19.914Z,26.7
2023-03-25T02:26:11.041Z,26.7
2023-03-25T02:31:46.652Z,26.8
2023-03-25T02:37:39.036Z,26.8
2023-03-25T02:43:15.091Z,26.8
2023-03-25T02:48:51.458Z,26.8
2023-03-25T02:54:43.143Z,26.8
2023-03-25T03:00:34.468Z,26.8
2023-03-25T03:06:26.330Z,26.8
2023-03-25T03:11:46.638Z,26.8
2023-03-25T03:17:23.159Z,26.8
2023-03-25T03:23:15.217Z,26.9
2023-03-25T03:29:06.832Z,27.1
2023-03-25T03:35:44.864Z,27.1
2023-03-25T03:41:36.603Z,27.1
2023-03-25T03:47:13.318Z,27
2023-03-25T03:52:49.074Z,26.9
2023-03-25T03:58:41.460Z,27
2023-03-25T04:04:33.402Z,26.9
2023-03-25T04:10:08.837Z,26.9
2023-03-25T04:16:00.520Z,26.9
2023-03-25T04:21:39.633Z,26.9
2023-03-25T04:27:15.387Z,26.9
2023-03-25T04:32:52.049Z,26.9
2023-03-25T04:38:43.911Z,26.8
2023-03-25T04:44:35.285Z,26.8
2023-03-25T04:49:56.133Z,26.8
2023-03-25T04:55:48.308Z,26.8
2023-03-25T05:01:39.981Z,26.8
2023-03-25T05:07:32.132Z,26.8
2023-03-25T05:13:23.270Z,26.8
2023-03-25T05:19:15.142Z,26.8
2023-03-25T05:24:51.341Z,26.8
2023-03-25T05:30:42.853Z,26.8
2023-03-25T05:36:35.897Z,26.8
2023-03-25T05:42:13.111Z,26.8
2023-03-25T05:48:05.160Z,26.8
2023-03-25T05:53:55.637Z,26.8
2023-03-25T05:59:52.185Z,26.8
2023-03-25T06:06:00.106Z,26.8
2023-03-25T06:11:50.844Z,27.4
2023-03-25T06:17:42.730Z,36.3
2023-03-25T06:23:35.023Z,33.6
2023-03-25T06:29:25.462Z,32.4
2023-03-25T06:35:38.641Z,41.8
2023-03-25T06:41:30.054Z,42.3
2023-03-25T06:47:06.204Z,43.1
2023-03-25T06:52:42.146Z,43.9
2023-03-25T06:58:34.380Z,44.7
2023-03-25T07:04:25.402Z,45.5
2023-03-25T07:10:19.032Z,46.4
2023-03-25T07:16:11.344Z,47.2
2023-03-25T07:22:09.000Z,48.2
2023-03-25T07:28:01.112Z,49.2
2023-03-25T07:33:53.817Z,50.3
2023-03-25T07:39:46.569Z,51.4
2023-03-25T07:45:43.904Z,52.3
2023-03-25T07:51:37.004Z,53.6
2023-03-25T07:57:30.090Z,54.6
2023-03-25T08:03:24.631Z,55.8
2023-03-25T08:09:18.683Z,56.8
2023-03-25T08:15:12.628Z,57.9
2023-03-25T08:21:05.183Z,59.1
2023-03-25T08:26:43.821Z,60.2
2023-03-25T08:32:36.476Z,60.3
2023-03-25T08:38:28.115Z,59.6
2023-03-25T08:44:04.354Z,59.3
2023-03-25T08:49:39.690Z,59.4
2023-03-25T08:54:59.812Z,61.1
2023-03-25T09:00:51.662Z,61
2023-03-25T09:07:10.235Z,62.3
2023-03-25T09:12:59.001Z,63.3
2023-03-25T09:18:51.393Z,64.3
2023-03-25T09:24:44.916Z,63.1
2023-03-25T09:30:37.592Z,63.9
2023-03-25T09:36:14.726Z,64.4
2023-03-25T09:42:06.681Z,65.6
2023-03-25T09:48:05.507Z,65.2
2023-03-25T09:53:58.028Z,64.8
2023-03-25T09:59:50.333Z,65.3
2023-03-25T10:05:27.606Z,65.1
2023-03-25T10:10:48.686Z,65.3
2023-03-25T10:16:43.141Z,65.6
2023-03-25T10:22:35.048Z,65.3
2023-03-25T10:28:26.560Z,65.1
2023-03-25T10:34:18.723Z,66.3
2023-03-25T10:40:11.719Z,66
2023-03-25T10:46:04.065Z,67.2
2023-03-25T10:51:55.843Z,68.3
2023-03-25T10:57:47.403Z,68.8
2023-03-25T11:03:40.153Z,69.2
2023-03-25T11:09:45.727Z,69.9
2023-03-25T11:15:50.300Z,65.4
2023-03-25T11:21:30.042Z,66.6
2023-03-25T11:27:22.104Z,67.3
2023-03-25T11:33:14.144Z,68.4
2023-03-25T11:39:06.361Z,68.4
2023-03-25T11:44:58.373Z,67.5
2023-03-25T11:50:19.142Z,66.6
2023-03-25T11:55:55.603Z,63
2023-03-25T12:01:32.253Z,52.9
2023-03-25T12:07:09.591Z,48.8
2023-03-25T12:12:48.243Z,49.1
2023-03-25T12:18:40.985Z,47.4
2023-03-25T12:24:33.522Z,45.7
2023-03-25T12:30:09.673Z,45.8
2023-03-25T12:36:01.920Z,45.9
2023-03-25T12:42:10.373Z,45.9
2023-03-25T12:48:02.862Z,45.6
2023-03-25T12:53:42.101Z,45.6
2023-03-25T12:59:03.185Z,45.5
2023-03-25T13:04:56.967Z,45.1
2023-03-25T13:10:48.281Z,44.6
2023-03-25T13:16:48.789Z,44.1
2023-03-25T13:22:31.305Z,43.6
2023-03-25T13:28:23.145Z,40.3
2023-03-25T13:34:16.291Z,40.1
2023-03-25T13:39:52.993Z,37.2
2023-03-25T13:45:47.997Z,35.6
2023-03-25T13:51:10.056Z,34.6
2023-03-25T13:57:03.436Z,33.8
2023-03-25T14:02:58.245Z,33
2023-03-25T14:08:50.621Z,32.4
2023-03-25T14:14:42.791Z,31.9
2023-03-25T14:20:04.088Z,31.5
2023-03-25T14:25:44.888Z,31.2
2023-03-25T14:31:37.014Z,30.9
2023-03-25T14:37:30.391Z,30.6
2023-03-25T14:43:19.605Z,30.4
2023-03-25T14:49:08.665Z,30.1
2023-03-25T14:54:47.387Z,29.9
2023-03-25T15:00:42.500Z,29.8
2023-03-25T15:06:35.159Z,29.6
2023-03-25T15:12:11.137Z,29.5
2023-03-25T15:18:02.910Z,29.4
2023-03-25T15:23:54.890Z,29.2
2023-03-25T15:29:46.579Z,29.1
2023-03-25T15:35:38.898Z,29
2023-03-25T15:41:43.938Z,28.9
2023-03-25T15:47:46.500Z,28.8
2023-03-25T15:53:43.106Z,28.8
2023-03-25T15:59:34.824Z,28.6
2023-03-25T16:05:26.160Z,28.6
2023-03-25T16:11:17.989Z,28.5
2023-03-25T16:17:09.504Z,28.4
2023-03-25T16:22:30.510Z,28.3
2023-03-25T16:28:24.415Z,28.3
2023-03-25T16:34:03.343Z,28.3
2023-03-25T16:39:39.073Z,28.1
2023-03-25T16:45:15.550Z,28.1
2023-03-25T16:50:53.346Z,28.1
2023-03-25T16:56:28.768Z,28
2023-03-25T17:02:21.490Z,27.9
2023-03-25T17:08:14.294Z,27.9
2023-03-25T17:14:05.171Z,27.9
2023-03-25T17:25:22.110Z,27.8
2023-03-25T17:31:14.130Z,27.8
2023-03-25T17:37:07.595Z,27.7
2023-03-25T17:42:44.269Z,27.6
2023-03-25T17:48:37.512Z,27.6
2023-03-25T17:54:28.416Z,27.6
2023-03-25T18:00:20.093Z,27.5
2023-03-25T18:06:12.720Z,27.5
2023-03-25T18:12:03.758Z,27.4
2023-03-25T18:17:55.403Z,27.4
2023-03-25T18:23:44.757Z,27.4
2023-03-25T18:29:35.574Z,27.3
2023-03-25T18:35:27.140Z,27.3
2023-03-25T18:41:18.966Z,27.3
2023-03-25T18:46:54.723Z,27.3
2023-03-25T18:52:46.092Z,27.2
2023-03-25T18:58:21.322Z,27.2
2023-03-25T19:04:14.271Z,27.1
2023-03-25T19:10:19.451Z,27.1
2023-03-25T19:16:22.972Z,27.1
2023-03-25T19:22:23.250Z,27.1
2023-03-25T19:28:14.313Z,27
2023-03-25T19:34:06.512Z,27
2023-03-25T19:39:59.238Z,26.9
2023-03-25T19:45:36.543Z,26.9
2023-03-25T19:51:27.586Z,26.9
2023-03-25T19:57:04.129Z,26.9
2023-03-25T20:02:56.353Z,26.8
2023-03-25T20:08:33.047Z,26.8
2023-03-25T20:14:34.072Z,26.8
2023-03-25T20:20:10.761Z,26.8
2023-03-25T20:25:45.759Z,26.8
2023-03-25T20:31:06.873Z,26.8
2023-03-25T20:37:09.687Z,26.7
2023-03-25T20:43:17.649Z,26.7
2023-03-25T20:49:08.976Z,26.6
2023-03-25T20:55:00.877Z,26.6
2023-03-25T21:00:53.829Z,26.6
2023-03-25T21:06:40.029Z,26.6
2023-03-25T21:12:43.087Z,26.6
2023-03-25T21:18:35.913Z,26.6
2023-03-25T21:24:30.073Z,26.5
2023-03-25T21:30:08.381Z,26.5
2023-03-25T21:36:10.396Z,26.4
2023-03-25T21:42:09.676Z,26.4
2023-03-25T21:48:03.281Z,26.4
2023-03-25T21:53:57.596Z,26.4
2023-03-25T21:59:18.425Z,26.4
2023-03-25T22:04:40.490Z,26.4
2023-03-25T22:10:31.936Z,26.4
2023-03-25T22:16:22.995Z,26.4
2023-03-25T22:22:15.644Z,26.4
2023-03-25T22:27:54.340Z,26.4
2023-03-25T22:33:45.667Z,26.3
2023-03-25T22:39:37.539Z,26.3
2023-03-25T22:45:13.733Z,26.3
2023-03-25T22:51:06.131Z,26.3
2023-03-25T22:56:59.251Z,26.3
2023-03-25T23:02:51.334Z,26.3
2023-03-25T23:08:22.876Z,26.2
2023-03-25T23:13:58.930Z,26.1
2023-03-25T23:19:52.462Z,26.1
2023-03-25T23:25:31.758Z,26.1
2023-03-25T23:31:23.593Z,26.1
2023-03-25T23:37:15.550Z,26
2023-03-25T23:42:52.581Z,25.9
2023-03-25T23:48:44.575Z,25.9
2023-03-25T23:54:04.691Z,25.9
2023-03-25T23:59:40.924Z,25.9
